sensor_id;sensor_type;location;lat;lon;timestamp;temperature;humidity
26408;DHT22;14583;43.604;1.364;2023-07-13T00:00:04;23.50;99.90
26408;DHT22;14583;43.604;1.364;2023-07-13T00:02:36;23.60;99.90
26408;DHT22;14583;43.604;1.364;2023-07-13T00:05:02;23.60;99.90
26408;DHT22;14583;43.604;1.364;2023-07-13T00:07:28;23.50;99.90
26408;DHT22;14583;43.604;1.364;2023-07-13T00:09:53;23.50;99.90
26408;DHT22;14583;43.604;1.364;2023-07-13T00:12:34;23.50;99.90
26408;DHT22;14583;43.604;1.364;2023-07-13T00:15:02;23.40;99.90
26408;DHT22;14583;43.604;1.364;2023-07-13T00:17:29;23.40;99.90
26408;DHT22;14583;43.604;1.364;2023-07-13T00:19:55;23.50;99.90
26408;DHT22;14583;43.604;1.364;2023-07-13T00:22:22;23.50;99.90
26408;DHT22;14583;43.604;1.364;2023-07-13T00:24:49;23.50;99.90
26408;DHT22;14583;43.604;1.364;2023-07-13T00:27:17;23.50;99.90
26408;DHT22;14583;43.604;1.364;2023-07-13T00:29:43;23.50;99.90
26408;DHT22;14583;43.604;1.364;2023-07-13T00:32:09;23.50;99.90
26408;DHT22;14583;43.604;1.364;2023-07-13T00:34:35;23.60;99.90
26408;DHT22;14583;43.604;1.364;2023-07-13T00:37:01;23.60;99.90
26408;DHT22;14583;43.604;1.364;2023-07-13T00:39:27;23.60;99.90
26408;DHT22;14583;43.604;1.364;2023-07-13T00:41:53;23.50;99.90
26408;DHT22;14583;43.604;1.364;2023-07-13T00:44:19;23.50;99.90
26408;DHT22;14583;43.604;1.364;2023-07-13T00:46:49;23.50;99.90
26408;DHT22;14583;43.604;1.364;2023-07-13T00:49:20;23.50;99.90
26408;DHT22;14583;43.604;1.364;2023-07-13T00:51:56;23.40;99.90
26408;DHT22;14583;43.604;1.364;2023-07-13T00:54:43;23.40;99.90
26408;DHT22;14583;43.604;1.364;2023-07-13T00:57:14;23.50;99.90
26408;DHT22;14583;43.604;1.364;2023-07-13T00:59:43;23.40;99.90
26408;DHT22;14583;43.604;1.364;2023-07-13T01:02:11;23.40;99.90
26408;DHT22;14583;43.604;1.364;2023-07-13T01:04:37;23.40;99.90
26408;DHT22;14583;43.604;1.364;2023-07-13T01:07:04;23.30;99.90
26408;DHT22;14583;43.604;1.364;2023-07-13T01:09:30;23.30;99.90
26408;DHT22;14583;43.604;1.364;2023-07-13T01:11:56;23.30;99.90
26408;DHT22;14583;43.604;1.364;2023-07-13T01:14:21;23.30;99.90
26408;DHT22;14583;43.604;1.364;2023-07-13T01:16:47;23.30;99.90
26408;DHT22;14583;43.604;1.364;2023-07-13T01:19:39;23.30;99.90
26408;DHT22;14583;43.604;1.364;2023-07-13T01:22:10;23.30;99.90
26408;DHT22;14583;43.604;1.364;2023-07-13T01:24:38;23.30;99.90
26408;DHT22;14583;43.604;1.364;2023-07-13T01:27:05;23.20;99.90
26408;DHT22;14583;43.604;1.364;2023-07-13T01:29:33;23.30;99.90
26408;DHT22;14583;43.604;1.364;2023-07-13T01:31:59;23.20;99.90
26408;DHT22;14583;43.604;1.364;2023-07-13T01:34:26;23.10;99.90
26408;DHT22;14583;43.604;1.364;2023-07-13T01:36:52;22.90;99.90
26408;DHT22;14583;43.604;1.364;2023-07-13T01:39:23;23.00;99.90
26408;DHT22;14583;43.604;1.364;2023-07-13T01:41:49;23.00;99.90
26408;DHT22;14583;43.604;1.364;2023-07-13T01:44:14;23.00;99.90
26408;DHT22;14583;43.604;1.364;2023-07-13T01:46:40;23.10;99.90
26408;DHT22;14583;43.604;1.364;2023-07-13T01:49:06;23.00;99.90
26408;DHT22;14583;43.604;1.364;2023-07-13T01:51:32;23.00;99.90
26408;DHT22;14583;43.604;1.364;2023-07-13T01:53:57;23.00;99.90
26408;DHT22;14583;43.604;1.364;2023-07-13T01:56:23;23.00;99.90
26408;DHT22;14583;43.604;1.364;2023-07-13T01:58:49;23.00;99.90
26408;DHT22;14583;43.604;1.364;2023-07-13T02:01:15;22.90;99.90
26408;DHT22;14583;43.604;1.364;2023-07-13T02:03:40;22.90;99.90
26408;DHT22;14583;43.604;1.364;2023-07-13T02:06:06;22.90;99.90
26408;DHT22;14583;43.604;1.364;2023-07-13T02:08:35;22.70;99.90
26408;DHT22;14583;43.604;1.364;2023-07-13T02:11:02;22.80;99.90
26408;DHT22;14583;43.604;1.364;2023-07-13T02:13:28;22.80;99.90
26408;DHT22;14583;43.604;1.364;2023-07-13T02:15:53;22.80;99.90
26408;DHT22;14583;43.604;1.364;2023-07-13T02:18:19;22.70;99.90
26408;DHT22;14583;43.604;1.364;2023-07-13T02:20:45;22.70;99.90
26408;DHT22;14583;43.604;1.364;2023-07-13T02:23:11;22.60;99.90
26408;DHT22;14583;43.604;1.364;2023-07-13T02:25:37;22.60;99.90
26408;DHT22;14583;43.604;1.364;2023-07-13T02:28:03;22.60;99.90
26408;DHT22;14583;43.604;1.364;2023-07-13T02:30:29;22.60;99.90
26408;DHT22;14583;43.604;1.364;2023-07-13T02:32:56;22.60;99.90
26408;DHT22;14583;43.604;1.364;2023-07-13T02:35:22;22.60;99.90
26408;DHT22;14583;43.604;1.364;2023-07-13T02:37:48;22.60;99.90
26408;DHT22;14583;43.604;1.364;2023-07-13T02:40:13;22.60;99.90
26408;DHT22;14583;43.604;1.364;2023-07-13T02:42:39;22.50;99.90
26408;DHT22;14583;43.604;1.364;2023-07-13T02:45:07;22.40;99.90
26408;DHT22;14583;43.604;1.364;2023-07-13T02:47:35;22.40;99.90
26408;DHT22;14583;43.604;1.364;2023-07-13T02:50:01;22.30;99.90
26408;DHT22;14583;43.604;1.364;2023-07-13T02:52:27;22.30;99.90
26408;DHT22;14583;43.604;1.364;2023-07-13T02:54:53;22.30;99.90
26408;DHT22;14583;43.604;1.364;2023-07-13T02:57:18;22.30;99.90
26408;DHT22;14583;43.604;1.364;2023-07-13T02:59:44;22.30;99.90
26408;DHT22;14583;43.604;1.364;2023-07-13T03:02:10;22.30;99.90
26408;DHT22;14583;43.604;1.364;2023-07-13T03:04:36;22.20;99.90
26408;DHT22;14583;43.604;1.364;2023-07-13T03:07:03;22.20;99.90
26408;DHT22;14583;43.604;1.364;2023-07-13T03:09:29;22.20;99.90
26408;DHT22;14583;43.604;1.364;2023-07-13T03:11:55;22.20;99.90
26408;DHT22;14583;43.604;1.364;2023-07-13T03:14:25;22.10;99.90
26408;DHT22;14583;43.604;1.364;2023-07-13T03:16:51;22.10;99.90
26408;DHT22;14583;43.604;1.364;2023-07-13T03:19:17;22.10;99.90
26408;DHT22;14583;43.604;1.364;2023-07-13T03:21:43;22.10;99.90
26408;DHT22;14583;43.604;1.364;2023-07-13T03:24:09;22.00;99.90
26408;DHT22;14583;43.604;1.364;2023-07-13T03:26:35;22.00;99.90
26408;DHT22;14583;43.604;1.364;2023-07-13T03:29:01;22.00;99.90
26408;DHT22;14583;43.604;1.364;2023-07-13T03:31:28;21.90;99.90
26408;DHT22;14583;43.604;1.364;2023-07-13T03:33:56;21.90;99.90
26408;DHT22;14583;43.604;1.364;2023-07-13T03:36:24;21.90;99.90
26408;DHT22;14583;43.604;1.364;2023-07-13T03:38:53;21.90;99.90
26408;DHT22;14583;43.604;1.364;2023-07-13T03:41:20;21.90;99.90
26408;DHT22;14583;43.604;1.364;2023-07-13T03:43:46;21.90;99.90
26408;DHT22;14583;43.604;1.364;2023-07-13T03:46:14;21.80;99.90
26408;DHT22;14583;43.604;1.364;2023-07-13T03:48:40;21.70;99.90
26408;DHT22;14583;43.604;1.364;2023-07-13T03:51:08;21.70;99.90
26408;DHT22;14583;43.604;1.364;2023-07-13T03:53:38;21.60;99.90
26408;DHT22;14583;43.604;1.364;2023-07-13T03:56:04;21.70;99.90
26408;DHT22;14583;43.604;1.364;2023-07-13T03:58:33;21.70;99.90
26408;DHT22;14583;43.604;1.364;2023-07-13T04:01:00;21.70;99.90
26408;DHT22;14583;43.604;1.364;2023-07-13T04:03:27;21.60;99.90
26408;DHT22;14583;43.604;1.364;2023-07-13T04:05:58;21.60;99.90
26408;DHT22;14583;43.604;1.364;2023-07-13T04:08:32;21.60;99.90
26408;DHT22;14583;43.604;1.364;2023-07-13T04:10:59;21.60;99.90
26408;DHT22;14583;43.604;1.364;2023-07-13T04:13:25;21.50;99.90
26408;DHT22;14583;43.604;1.364;2023-07-13T04:15:51;21.50;99.90
26408;DHT22;14583;43.604;1.364;2023-07-13T04:18:17;21.50;99.90
26408;DHT22;14583;43.604;1.364;2023-07-13T04:20:45;21.50;99.90
26408;DHT22;14583;43.604;1.364;2023-07-13T04:23:11;21.50;99.90
26408;DHT22;14583;43.604;1.364;2023-07-13T04:25:37;21.50;99.90
26408;DHT22;14583;43.604;1.364;2023-07-13T04:28:03;21.40;99.90
26408;DHT22;14583;43.604;1.364;2023-07-13T04:30:30;21.40;99.90
26408;DHT22;14583;43.604;1.364;2023-07-13T04:32:55;21.50;99.90
26408;DHT22;14583;43.604;1.364;2023-07-13T04:35:21;21.50;99.90
26408;DHT22;14583;43.604;1.364;2023-07-13T04:37:48;21.40;99.90
26408;DHT22;14583;43.604;1.364;2023-07-13T04:40:19;21.40;99.90
26408;DHT22;14583;43.604;1.364;2023-07-13T04:42:45;21.30;99.90
26408;DHT22;14583;43.604;1.364;2023-07-13T04:45:12;21.30;99.90
26408;DHT22;14583;43.604;1.364;2023-07-13T04:47:38;21.30;99.90
26408;DHT22;14583;43.604;1.364;2023-07-13T04:50:04;21.20;99.90
26408;DHT22;14583;43.604;1.364;2023-07-13T04:52:30;21.20;99.90
26408;DHT22;14583;43.604;1.364;2023-07-13T04:54:56;21.20;99.90
26408;DHT22;14583;43.604;1.364;2023-07-13T04:57:22;21.10;99.90
26408;DHT22;14583;43.604;1.364;2023-07-13T04:59:47;21.00;99.90
26408;DHT22;14583;43.604;1.364;2023-07-13T05:02:13;21.10;99.90
26408;DHT22;14583;43.604;1.364;2023-07-13T05:04:38;21.10;99.90
26408;DHT22;14583;43.604;1.364;2023-07-13T05:07:05;21.10;99.90
26408;DHT22;14583;43.604;1.364;2023-07-13T05:09:31;21.10;99.90
26408;DHT22;14583;43.604;1.364;2023-07-13T05:11:57;21.10;99.90
26408;DHT22;14583;43.604;1.364;2023-07-13T05:14:22;21.10;99.90
26408;DHT22;14583;43.604;1.364;2023-07-13T05:16:48;21.10;99.90
26408;DHT22;14583;43.604;1.364;2023-07-13T05:19:14;21.10;99.90
26408;DHT22;14583;43.604;1.364;2023-07-13T05:21:39;21.10;99.90
26408;DHT22;14583;43.604;1.364;2023-07-13T05:24:06;21.10;99.90
26408;DHT22;14583;43.604;1.364;2023-07-13T05:26:32;20.90;99.90
26408;DHT22;14583;43.604;1.364;2023-07-13T05:28:57;21.00;99.90
26408;DHT22;14583;43.604;1.364;2023-07-13T05:31:23;21.10;99.90
26408;DHT22;14583;43.604;1.364;2023-07-13T05:33:49;21.00;99.90
26408;DHT22;14583;43.604;1.364;2023-07-13T05:36:14;21.00;99.90
26408;DHT22;14583;43.604;1.364;2023-07-13T05:38:40;21.10;99.90
26408;DHT22;14583;43.604;1.364;2023-07-13T05:41:06;21.20;99.90
26408;DHT22;14583;43.604;1.364;2023-07-13T05:43:35;21.20;99.90
26408;DHT22;14583;43.604;1.364;2023-07-13T05:46:01;21.20;99.90
26408;DHT22;14583;43.604;1.364;2023-07-13T05:48:26;21.20;99.90
26408;DHT22;14583;43.604;1.364;2023-07-13T05:50:52;21.30;99.90
26408;DHT22;14583;43.604;1.364;2023-07-13T05:53:18;21.30;99.90
26408;DHT22;14583;43.604;1.364;2023-07-13T05:55:44;21.30;99.90
26408;DHT22;14583;43.604;1.364;2023-07-13T05:58:13;21.20;99.90
26408;DHT22;14583;43.604;1.364;2023-07-13T06:00:39;21.30;99.90
26408;DHT22;14583;43.604;1.364;2023-07-13T06:03:06;21.30;99.90
26408;DHT22;14583;43.604;1.364;2023-07-13T06:05:32;21.30;99.90
26408;DHT22;14583;43.604;1.364;2023-07-13T06:07:59;21.20;99.90
26408;DHT22;14583;43.604;1.364;2023-07-13T06:10:24;21.10;99.90
26408;DHT22;14583;43.604;1.364;2023-07-13T06:12:50;21.20;99.90
26408;DHT22;14583;43.604;1.364;2023-07-13T06:15:16;21.30;99.90
26408;DHT22;14583;43.604;1.364;2023-07-13T06:17:42;21.40;99.90
26408;DHT22;14583;43.604;1.364;2023-07-13T06:20:07;21.40;99.90
26408;DHT22;14583;43.604;1.364;2023-07-13T06:22:33;21.30;99.90
26408;DHT22;14583;43.604;1.364;2023-07-13T06:24:59;21.40;99.90
26408;DHT22;14583;43.604;1.364;2023-07-13T06:27:24;21.40;99.90
26408;DHT22;14583;43.604;1.364;2023-07-13T06:29:50;21.40;99.90
26408;DHT22;14583;43.604;1.364;2023-07-13T06:32:17;21.40;99.90
26408;DHT22;14583;43.604;1.364;2023-07-13T06:34:42;21.30;99.90
26408;DHT22;14583;43.604;1.364;2023-07-13T06:37:09;21.30;99.90
26408;DHT22;14583;43.604;1.364;2023-07-13T06:39:35;21.20;99.90
26408;DHT22;14583;43.604;1.364;2023-07-13T06:42:01;21.30;99.90
26408;DHT22;14583;43.604;1.364;2023-07-13T06:44:26;21.40;99.90
26408;DHT22;14583;43.604;1.364;2023-07-13T06:46:53;21.40;99.90
26408;DHT22;14583;43.604;1.364;2023-07-13T06:49:19;21.40;99.90
26408;DHT22;14583;43.604;1.364;2023-07-13T06:51:44;21.40;99.90
26408;DHT22;14583;43.604;1.364;2023-07-13T06:54:10;21.50;99.90
26408;DHT22;14583;43.604;1.364;2023-07-13T06:56:36;21.50;99.90
26408;DHT22;14583;43.604;1.364;2023-07-13T06:59:01;21.40;99.90
26408;DHT22;14583;43.604;1.364;2023-07-13T07:01:27;21.40;99.90
26408;DHT22;14583;43.604;1.364;2023-07-13T07:03:53;21.50;99.90
26408;DHT22;14583;43.604;1.364;2023-07-13T07:06:20;21.50;99.90
26408;DHT22;14583;43.604;1.364;2023-07-13T07:08:49;21.60;99.90
26408;DHT22;14583;43.604;1.364;2023-07-13T07:11:21;21.60;99.90
26408;DHT22;14583;43.604;1.364;2023-07-13T07:13:48;21.60;99.90
26408;DHT22;14583;43.604;1.364;2023-07-13T07:16:14;21.60;99.90
26408;DHT22;14583;43.604;1.364;2023-07-13T07:18:39;21.60;99.90
26408;DHT22;14583;43.604;1.364;2023-07-13T07:21:05;21.70;99.90
26408;DHT22;14583;43.604;1.364;2023-07-13T07:23:31;21.80;99.90
26408;DHT22;14583;43.604;1.364;2023-07-13T07:25:56;21.80;99.90
26408;DHT22;14583;43.604;1.364;2023-07-13T07:28:22;21.80;99.90
26408;DHT22;14583;43.604;1.364;2023-07-13T07:30:48;21.80;99.90
26408;DHT22;14583;43.604;1.364;2023-07-13T07:33:15;21.80;99.90
26408;DHT22;14583;43.604;1.364;2023-07-13T07:35:42;21.90;99.90
26408;DHT22;14583;43.604;1.364;2023-07-13T07:38:08;21.90;99.90
26408;DHT22;14583;43.604;1.364;2023-07-13T07:40:40;21.90;99.90
26408;DHT22;14583;43.604;1.364;2023-07-13T07:43:07;22.00;99.90
26408;DHT22;14583;43.604;1.364;2023-07-13T07:45:33;21.80;99.90
26408;DHT22;14583;43.604;1.364;2023-07-13T07:47:59;21.80;99.90
26408;DHT22;14583;43.604;1.364;2023-07-13T07:50:26;22.00;99.90
26408;DHT22;14583;43.604;1.364;2023-07-13T07:52:51;22.00;99.90
26408;DHT22;14583;43.604;1.364;2023-07-13T07:55:17;22.10;99.90
26408;DHT22;14583;43.604;1.364;2023-07-13T07:57:43;22.00;99.90
26408;DHT22;14583;43.604;1.364;2023-07-13T08:00:12;22.20;99.90
26408;DHT22;14583;43.604;1.364;2023-07-13T08:02:38;22.20;99.90
26408;DHT22;14583;43.604;1.364;2023-07-13T08:05:09;22.20;99.90
26408;DHT22;14583;43.604;1.364;2023-07-13T08:07:37;22.30;99.90
26408;DHT22;14583;43.604;1.364;2023-07-13T08:10:03;22.30;99.90
26408;DHT22;14583;43.604;1.364;2023-07-13T08:12:29;22.30;99.90
26408;DHT22;14583;43.604;1.364;2023-07-13T08:14:54;22.30;99.90
26408;DHT22;14583;43.604;1.364;2023-07-13T08:17:23;22.30;99.90
26408;DHT22;14583;43.604;1.364;2023-07-13T08:19:50;22.30;99.90
26408;DHT22;14583;43.604;1.364;2023-07-13T08:22:15;22.20;99.90
26408;DHT22;14583;43.604;1.364;2023-07-13T08:24:41;22.10;99.90
26408;DHT22;14583;43.604;1.364;2023-07-13T08:27:13;22.20;99.90
26408;DHT22;14583;43.604;1.364;2023-07-13T08:29:39;22.20;99.90
26408;DHT22;14583;43.604;1.364;2023-07-13T08:32:06;22.30;99.90
26408;DHT22;14583;43.604;1.364;2023-07-13T08:34:35;22.30;99.90
26408;DHT22;14583;43.604;1.364;2023-07-13T08:37:01;22.40;99.90
26408;DHT22;14583;43.604;1.364;2023-07-13T08:39:27;22.40;99.90
26408;DHT22;14583;43.604;1.364;2023-07-13T08:41:58;22.40;99.90
26408;DHT22;14583;43.604;1.364;2023-07-13T08:47:33;22.30;99.90
26408;DHT22;14583;43.604;1.364;2023-07-13T08:50:01;22.50;99.90
26408;DHT22;14583;43.604;1.364;2023-07-13T08:52:37;22.40;99.90
26408;DHT22;14583;43.604;1.364;2023-07-13T08:55:29;22.50;99.90
26408;DHT22;14583;43.604;1.364;2023-07-13T08:58:25;22.40;99.90
26408;DHT22;14583;43.604;1.364;2023-07-13T09:06:39;22.50;99.90
26408;DHT22;14583;43.604;1.364;2023-07-13T09:12:17;22.70;99.90
26408;DHT22;14583;43.604;1.364;2023-07-13T09:14:49;22.90;99.90
26408;DHT22;14583;43.604;1.364;2023-07-13T09:17:22;22.90;99.70
26408;DHT22;14583;43.604;1.364;2023-07-13T09:20:02;23.00;99.90
26408;DHT22;14583;43.604;1.364;2023-07-13T09:22:32;23.10;99.90
26408;DHT22;14583;43.604;1.364;2023-07-13T09:28:22;23.10;99.90
26408;DHT22;14583;43.604;1.364;2023-07-13T09:30:50;23.20;99.90
26408;DHT22;14583;43.604;1.364;2023-07-13T09:33:20;23.40;99.90
26408;DHT22;14583;43.604;1.364;2023-07-13T09:35:46;23.40;99.90
26408;DHT22;14583;43.604;1.364;2023-07-13T09:38:14;23.60;99.90
26408;DHT22;14583;43.604;1.364;2023-07-13T09:43:24;23.80;99.80
26408;DHT22;14583;43.604;1.364;2023-07-13T09:45:50;23.70;99.90
26408;DHT22;14583;43.604;1.364;2023-07-13T09:48:18;23.60;99.90
26408;DHT22;14583;43.604;1.364;2023-07-13T09:50:44;23.80;99.50
26408;DHT22;14583;43.604;1.364;2023-07-13T09:53:18;23.90;99.60
26408;DHT22;14583;43.604;1.364;2023-07-13T09:55:46;23.70;99.80
26408;DHT22;14583;43.604;1.364;2023-07-13T10:00:42;23.90;99.90
26408;DHT22;14583;43.604;1.364;2023-07-13T10:03:21;24.00;99.80
26408;DHT22;14583;43.604;1.364;2023-07-13T10:05:50;24.10;99.20
26408;DHT22;14583;43.604;1.364;2023-07-13T10:08:28;24.10;99.30
26408;DHT22;14583;43.604;1.364;2023-07-13T10:11:23;24.10;99.40
26408;DHT22;14583;43.604;1.364;2023-07-13T10:13:52;24.00;99.90
26408;DHT22;14583;43.604;1.364;2023-07-13T10:16:21;24.10;99.50
26408;DHT22;14583;43.604;1.364;2023-07-13T10:18:57;24.10;99.70
26408;DHT22;14583;43.604;1.364;2023-07-13T10:21:42;24.00;99.40
26408;DHT22;14583;43.604;1.364;2023-07-13T10:24:24;24.10;99.90
26408;DHT22;14583;43.604;1.364;2023-07-13T10:27:16;24.10;99.90
26408;DHT22;14583;43.604;1.364;2023-07-13T10:32:14;24.10;99.70
26408;DHT22;14583;43.604;1.364;2023-07-13T10:34:42;24.20;99.90
26408;DHT22;14583;43.604;1.364;2023-07-13T10:37:18;24.20;99.50
26408;DHT22;14583;43.604;1.364;2023-07-13T10:39:46;24.30;99.50
26408;DHT22;14583;43.604;1.364;2023-07-13T10:42:21;24.40;99.70
26408;DHT22;14583;43.604;1.364;2023-07-13T10:44:50;24.50;99.20
26408;DHT22;14583;43.604;1.364;2023-07-13T10:47:16;24.50;99.50
26408;DHT22;14583;43.604;1.364;2023-07-13T10:49:44;24.50;99.70
26408;DHT22;14583;43.604;1.364;2023-07-13T10:55:53;24.20;99.30
26408;DHT22;14583;43.604;1.364;2023-07-13T10:58:36;24.30;99.70
26408;DHT22;14583;43.604;1.364;2023-07-13T11:01:18;24.50;99.50
26408;DHT22;14583;43.604;1.364;2023-07-13T11:14:00;24.50;99.10
26408;DHT22;14583;43.604;1.364;2023-07-13T11:16:37;24.50;99.50
26408;DHT22;14583;43.604;1.364;2023-07-13T11:21:29;24.70;99.30
26408;DHT22;14583;43.604;1.364;2023-07-13T11:24:15;24.70;99.10
26408;DHT22;14583;43.604;1.364;2023-07-13T11:31:55;25.20;98.60
26408;DHT22;14583;43.604;1.364;2023-07-13T11:34:28;25.00;98.00
26408;DHT22;14583;43.604;1.364;2023-07-13T11:36:57;24.80;99.20
26408;DHT22;14583;43.604;1.364;2023-07-13T11:39:37;25.10;99.30
26408;DHT22;14583;43.604;1.364;2023-07-13T11:42:05;25.20;98.70
26408;DHT22;14583;43.604;1.364;2023-07-13T11:44:33;25.30;98.30
26408;DHT22;14583;43.604;1.364;2023-07-13T11:47:11;25.10;98.20
26408;DHT22;14583;43.604;1.364;2023-07-13T11:49:45;25.00;98.70
26408;DHT22;14583;43.604;1.364;2023-07-13T11:52:19;24.90;98.80
26408;DHT22;14583;43.604;1.364;2023-07-13T11:54:52;24.90;98.50
26408;DHT22;14583;43.604;1.364;2023-07-13T11:57:33;24.80;98.70
26408;DHT22;14583;43.604;1.364;2023-07-13T12:00:03;25.10;98.60
26408;DHT22;14583;43.604;1.364;2023-07-13T12:02:34;25.20;99.10
26408;DHT22;14583;43.604;1.364;2023-07-13T12:05:04;25.20;98.40
26408;DHT22;14583;43.604;1.364;2023-07-13T12:07:32;25.20;98.30
26408;DHT22;14583;43.604;1.364;2023-07-13T12:12:52;25.20;98.80
26408;DHT22;14583;43.604;1.364;2023-07-13T12:15:20;25.20;98.40
26408;DHT22;14583;43.604;1.364;2023-07-13T12:17:47;25.20;98.30
26408;DHT22;14583;43.604;1.364;2023-07-13T12:20:23;25.30;98.70
26408;DHT22;14583;43.604;1.364;2023-07-13T12:22:50;25.40;99.20
26408;DHT22;14583;43.604;1.364;2023-07-13T12:25:17;25.50;98.70
26408;DHT22;14583;43.604;1.364;2023-07-13T12:27:47;25.40;98.40
26408;DHT22;14583;43.604;1.364;2023-07-13T12:33:29;25.60;99.20
26408;DHT22;14583;43.604;1.364;2023-07-13T12:35:49;25.80;97.60
26408;DHT22;14583;43.604;1.364;2023-07-13T12:38:16;26.10;97.60
26408;DHT22;14583;43.604;1.364;2023-07-13T12:40:42;25.80;97.50
26408;DHT22;14583;43.604;1.364;2023-07-13T12:43:12;25.70;97.70
26408;DHT22;14583;43.604;1.364;2023-07-13T12:45:38;25.80;97.70
26408;DHT22;14583;43.604;1.364;2023-07-13T12:48:13;25.70;97.50
26408;DHT22;14583;43.604;1.364;2023-07-13T12:50:41;25.80;98.10
26408;DHT22;14583;43.604;1.364;2023-07-13T12:53:14;26.10;97.50
26408;DHT22;14583;43.604;1.364;2023-07-13T12:55:53;26.10;97.30
26408;DHT22;14583;43.604;1.364;2023-07-13T12:58:36;25.80;96.80
26408;DHT22;14583;43.604;1.364;2023-07-13T13:01:02;25.60;97.50
26408;DHT22;14583;43.604;1.364;2023-07-13T13:03:37;25.60;97.20
26408;DHT22;14583;43.604;1.364;2023-07-13T13:06:25;25.90;97.30
26408;DHT22;14583;43.604;1.364;2023-07-13T13:08:58;25.80;96.90
26408;DHT22;14583;43.604;1.364;2023-07-13T13:11:26;25.50;97.40
26408;DHT22;14583;43.604;1.364;2023-07-13T13:13:52;25.50;97.80
26408;DHT22;14583;43.604;1.364;2023-07-13T13:16:30;25.80;98.10
26408;DHT22;14583;43.604;1.364;2023-07-13T13:19:23;26.00;96.90
26408;DHT22;14583;43.604;1.364;2023-07-13T13:21:52;26.00;97.40
26408;DHT22;14583;43.604;1.364;2023-07-13T13:24:21;26.00;96.80
26408;DHT22;14583;43.604;1.364;2023-07-13T13:26:47;26.30;97.80
26408;DHT22;14583;43.604;1.364;2023-07-13T13:29:19;26.40;96.70
26408;DHT22;14583;43.604;1.364;2023-07-13T13:31:46;26.50;96.60
26408;DHT22;14583;43.604;1.364;2023-07-13T13:34:15;26.60;96.70
26408;DHT22;14583;43.604;1.364;2023-07-13T13:36:42;26.90;96.50
26408;DHT22;14583;43.604;1.364;2023-07-13T13:39:33;26.80;95.90
26408;DHT22;14583;43.604;1.364;2023-07-13T13:41:59;26.70;95.90
26408;DHT22;14583;43.604;1.364;2023-07-13T13:44:25;26.50;95.60
26408;DHT22;14583;43.604;1.364;2023-07-13T13:46:53;26.50;95.70
26408;DHT22;14583;43.604;1.364;2023-07-13T13:49:22;26.40;95.10
26408;DHT22;14583;43.604;1.364;2023-07-13T13:51:49;26.10;96.60
26408;DHT22;14583;43.604;1.364;2023-07-13T13:54:16;26.60;96.70
26408;DHT22;14583;43.604;1.364;2023-07-13T13:56:43;26.90;95.80
26408;DHT22;14583;43.604;1.364;2023-07-13T13:59:10;27.00;95.30
26408;DHT22;14583;43.604;1.364;2023-07-13T14:01:36;26.90;95.50
26408;DHT22;14583;43.604;1.364;2023-07-13T14:04:03;27.10;95.90
26408;DHT22;14583;43.604;1.364;2023-07-13T14:06:29;27.30;95.20
26408;DHT22;14583;43.604;1.364;2023-07-13T14:08:55;27.60;95.50
26408;DHT22;14583;43.604;1.364;2023-07-13T14:11:21;27.90;94.80
26408;DHT22;14583;43.604;1.364;2023-07-13T14:13:58;28.00;94.40
26408;DHT22;14583;43.604;1.364;2023-07-13T14:16:28;27.80;94.30
26408;DHT22;14583;43.604;1.364;2023-07-13T14:18:55;27.40;94.30
26408;DHT22;14583;43.604;1.364;2023-07-13T14:21:24;27.60;95.50
26408;DHT22;14583;43.604;1.364;2023-07-13T14:23:49;27.80;95.10
26408;DHT22;14583;43.604;1.364;2023-07-13T14:26:20;28.30;94.10
26408;DHT22;14583;43.604;1.364;2023-07-13T14:28:56;28.20;93.30
26408;DHT22;14583;43.604;1.364;2023-07-13T14:31:24;28.10;94.90
26408;DHT22;14583;43.604;1.364;2023-07-13T14:33:50;28.00;93.10
26408;DHT22;14583;43.604;1.364;2023-07-13T14:36:29;27.80;93.70
26408;DHT22;14583;43.604;1.364;2023-07-13T14:38:57;27.40;93.40
26408;DHT22;14583;43.604;1.364;2023-07-13T14:41:23;27.80;94.20
26408;DHT22;14583;43.604;1.364;2023-07-13T14:43:49;28.20;94.30
26408;DHT22;14583;43.604;1.364;2023-07-13T14:46:42;28.40;93.90
26408;DHT22;14583;43.604;1.364;2023-07-13T14:49:31;28.40;93.40
26408;DHT22;14583;43.604;1.364;2023-07-13T14:51:59;28.30;94.00
26408;DHT22;14583;43.604;1.364;2023-07-13T14:54:24;28.00;93.60
26408;DHT22;14583;43.604;1.364;2023-07-13T14:56:50;27.80;93.90
26408;DHT22;14583;43.604;1.364;2023-07-13T14:59:16;28.00;93.70
26408;DHT22;14583;43.604;1.364;2023-07-13T15:01:44;28.30;92.80
26408;DHT22;14583;43.604;1.364;2023-07-13T15:04:11;28.50;93.30
26408;DHT22;14583;43.604;1.364;2023-07-13T15:06:57;28.30;92.40
26408;DHT22;14583;43.604;1.364;2023-07-13T15:09:25;28.50;92.00
26408;DHT22;14583;43.604;1.364;2023-07-13T15:11:58;28.60;92.20
26408;DHT22;14583;43.604;1.364;2023-07-13T15:14:25;28.80;92.70
26408;DHT22;14583;43.604;1.364;2023-07-13T15:16:53;29.30;93.60
26408;DHT22;14583;43.604;1.364;2023-07-13T15:19:19;29.40;91.60
26408;DHT22;14583;43.604;1.364;2023-07-13T15:21:47;29.50;92.00
26408;DHT22;14583;43.604;1.364;2023-07-13T15:24:13;29.60;92.00
26408;DHT22;14583;43.604;1.364;2023-07-13T15:26:39;29.50;91.90
26408;DHT22;14583;43.604;1.364;2023-07-13T15:29:05;30.00;93.10
26408;DHT22;14583;43.604;1.364;2023-07-13T15:31:32;30.20;91.20
26408;DHT22;14583;43.604;1.364;2023-07-13T15:33:59;30.40;91.40
26408;DHT22;14583;43.604;1.364;2023-07-13T15:36:26;30.10;90.70
26408;DHT22;14583;43.604;1.364;2023-07-13T15:38:53;30.40;91.80
26408;DHT22;14583;43.604;1.364;2023-07-13T15:41:21;31.00;91.20
26408;DHT22;14583;43.604;1.364;2023-07-13T15:43:49;30.20;89.60
26408;DHT22;14583;43.604;1.364;2023-07-13T15:46:18;29.50;91.00
26408;DHT22;14583;43.604;1.364;2023-07-13T15:48:44;30.00;90.90
26408;DHT22;14583;43.604;1.364;2023-07-13T15:51:14;30.30;91.00
26408;DHT22;14583;43.604;1.364;2023-07-13T15:53:43;31.40;91.20
26408;DHT22;14583;43.604;1.364;2023-07-13T15:56:21;32.20;91.10
26408;DHT22;14583;43.604;1.364;2023-07-13T15:58:48;32.10;89.20
26408;DHT22;14583;43.604;1.364;2023-07-13T16:01:14;31.50;89.30
26408;DHT22;14583;43.604;1.364;2023-07-13T16:03:40;31.60;87.90
26408;DHT22;14583;43.604;1.364;2023-07-13T16:06:20;31.10;86.70
26408;DHT22;14583;43.604;1.364;2023-07-13T16:08:49;31.00;88.50
26408;DHT22;14583;43.604;1.364;2023-07-13T16:11:27;32.30;91.20
26408;DHT22;14583;43.604;1.364;2023-07-13T16:13:54;32.10;84.20
26408;DHT22;14583;43.604;1.364;2023-07-13T16:16:22;32.30;86.10
26408;DHT22;14583;43.604;1.364;2023-07-13T16:18:56;35.60;87.90
26408;DHT22;14583;43.604;1.364;2023-07-13T16:21:23;38.70;79.50
26408;DHT22;14583;43.604;1.364;2023-07-13T16:23:50;42.20;76.30
26408;DHT22;14583;43.604;1.364;2023-07-13T16:26:30;45.20;70.40
26408;DHT22;14583;43.604;1.364;2023-07-13T16:29:25;47.20;65.10